sensor_id;sensor_type;location;lat;lon;timestamp;pressure;altitude;pressure_sealevel;temperature;humidity
80321;BME280;69633;47.066;15.450;2023-06-26T00:00:01;97716.22;;;19.57;65.36
80321;BME280;69633;47.066;15.450;2023-06-26T00:02:30;97709.69;;;19.55;65.84
80321;BME280;69633;47.066;15.450;2023-06-26T00:05:00;97705.44;;;19.47;66.09
80321;BME280;69633;47.066;15.450;2023-06-26T00:07:30;97707.78;;;19.48;65.88
80321;BME280;69633;47.066;15.450;2023-06-26T00:09:57;97711.59;;;19.47;65.90
80321;BME280;69633;47.066;15.450;2023-06-26T00:12:23;97709.31;;;19.49;65.69
80321;BME280;69633;47.066;15.450;2023-06-26T00:14:51;97715.06;;;19.44;65.93
80321;BME280;69633;47.066;15.450;2023-06-26T00:17:18;97713.13;;;19.41;65.96
80321;BME280;69633;47.066;15.450;2023-06-26T00:19:44;97713.47;;;19.40;66.08
80321;BME280;69633;47.066;15.450;2023-06-26T00:22:11;97708.88;;;19.40;65.82
80321;BME280;69633;47.066;15.450;2023-06-26T00:24:38;97703.91;;;19.42;65.79
80321;BME280;69633;47.066;15.450;2023-06-26T00:27:05;97715.41;;;19.39;65.86
80321;BME280;69633;47.066;15.450;2023-06-26T00:29:30;97709.25;;;19.35;65.91
80321;BME280;69633;47.066;15.450;2023-06-26T00:31:57;97697.31;;;19.33;65.89
80321;BME280;69633;47.066;15.450;2023-06-26T00:34:24;97703.47;;;19.37;65.82
80321;BME280;69633;47.066;15.450;2023-06-26T00:36:50;97700.03;;;19.36;65.82
80321;BME280;69633;47.066;15.450;2023-06-26T00:39:16;97700.78;;;19.33;65.72
80321;BME280;69633;47.066;15.450;2023-06-26T00:41:42;97693.47;;;19.34;65.71
80321;BME280;69633;47.066;15.450;2023-06-26T00:44:08;97692.31;;;19.35;65.73
80321;BME280;69633;47.066;15.450;2023-06-26T00:46:35;97705.41;;;19.36;65.56
80321;BME280;69633;47.066;15.450;2023-06-26T00:49:03;97696.97;;;19.38;65.66
80321;BME280;69633;47.066;15.450;2023-06-26T00:51:30;97706.94;;;19.26;66.08
80321;BME280;69633;47.066;15.450;2023-06-26T00:53:57;97698.81;;;19.16;66.55
80321;BME280;69633;47.066;15.450;2023-06-26T00:56:24;97693.03;;;19.07;66.90
80321;BME280;69633;47.066;15.450;2023-06-26T00:58:51;97695.31;;;19.01;67.12
80321;BME280;69633;47.066;15.450;2023-06-26T01:01:16;97697.19;;;18.94;67.22
80321;BME280;69633;47.066;15.450;2023-06-26T01:03:44;97695.59;;;18.82;67.60
80321;BME280;69633;47.066;15.450;2023-06-26T01:06:14;97695.22;;;18.76;67.85
80321;BME280;69633;47.066;15.450;2023-06-26T01:08:42;97694.06;;;18.70;67.77
80321;BME280;69633;47.066;15.450;2023-06-26T01:11:10;97694.78;;;18.67;67.88
80321;BME280;69633;47.066;15.450;2023-06-26T01:13:37;97691.72;;;18.69;67.95
80321;BME280;69633;47.066;15.450;2023-06-26T01:16:09;97683.28;;;18.70;67.83
80321;BME280;69633;47.066;15.450;2023-06-26T01:18:38;97693.66;;;18.72;67.69
80321;BME280;69633;47.066;15.450;2023-06-26T01:21:16;97682.88;;;18.68;67.66
80321;BME280;69633;47.066;15.450;2023-06-26T01:23:53;97689.81;;;18.73;67.68
80321;BME280;69633;47.066;15.450;2023-06-26T01:26:26;97684.09;;;18.74;67.57
80321;BME280;69633;47.066;15.450;2023-06-26T01:28:53;97684.81;;;18.75;67.26
80321;BME280;69633;47.066;15.450;2023-06-26T01:31:22;97672.13;;;18.68;67.38
80321;BME280;69633;47.066;15.450;2023-06-26T01:33:50;97672.88;;;18.65;67.54
80321;BME280;69633;47.066;15.450;2023-06-26T01:36:17;97667.16;;;18.67;67.60
80321;BME280;69633;47.066;15.450;2023-06-26T01:38:43;97670.56;;;18.67;67.44
80321;BME280;69633;47.066;15.450;2023-06-26T01:41:11;97672.47;;;18.63;67.53
80321;BME280;69633;47.066;15.450;2023-06-26T01:47:00;97662.16;;;18.69;67.49
80321;BME280;69633;47.066;15.450;2023-06-26T01:53:02;97658.28;;;18.63;67.15
80321;BME280;69633;47.066;15.450;2023-06-26T01:55:53;97658.25;;;18.56;67.50
80321;BME280;69633;47.066;15.450;2023-06-26T01:58:23;97662.09;;;18.58;67.37
80321;BME280;69633;47.066;15.450;2023-06-26T02:00:52;97655.19;;;18.57;67.49
80321;BME280;69633;47.066;15.450;2023-06-26T02:03:19;97654.81;;;18.55;67.44
80321;BME280;69633;47.066;15.450;2023-06-26T02:05:46;97651.72;;;18.57;67.37
80321;BME280;69633;47.066;15.450;2023-06-26T02:08:14;97652.84;;;18.52;67.56
80321;BME280;69633;47.066;15.450;2023-06-26T02:10:41;97652.47;;;18.54;67.54
80321;BME280;69633;47.066;15.450;2023-06-26T02:13:09;97648.19;;;18.49;67.51
80321;BME280;69633;47.066;15.450;2023-06-26T02:15:35;97646.69;;;18.48;67.67
80321;BME280;69633;47.066;15.450;2023-06-26T02:18:02;97642.03;;;18.45;67.66
80321;BME280;69633;47.066;15.450;2023-06-26T02:20:28;97649.72;;;18.47;67.67
80321;BME280;69633;47.066;15.450;2023-06-26T02:22:55;97648.97;;;18.46;67.62
80321;BME280;69633;47.066;15.450;2023-06-26T02:25:21;97655.09;;;18.43;67.57
80321;BME280;69633;47.066;15.450;2023-06-26T02:27:47;97647.81;;;18.47;67.34
80321;BME280;69633;47.066;15.450;2023-06-26T02:30:14;97650.50;;;18.47;67.56
80321;BME280;69633;47.066;15.450;2023-06-26T02:32:40;97651.31;;;18.51;67.53
80321;BME280;69633;47.066;15.450;2023-06-26T02:35:07;97646.72;;;18.55;67.20
80321;BME280;69633;47.066;15.450;2023-06-26T02:37:34;97653.63;;;18.53;67.90
80321;BME280;69633;47.066;15.450;2023-06-26T02:40:00;97652.44;;;18.50;67.26
80321;BME280;69633;47.066;15.450;2023-06-26T02:42:26;97648.63;;;18.51;67.22
80321;BME280;69633;47.066;15.450;2023-06-26T02:44:53;97653.97;;;18.48;67.41
80321;BME280;69633;47.066;15.450;2023-06-26T02:47:19;97655.47;;;18.45;67.49
80321;BME280;69633;47.066;15.450;2023-06-26T02:49:46;97647.78;;;18.37;67.52
80321;BME280;69633;47.066;15.450;2023-06-26T02:52:13;97645.06;;;18.33;67.66
80321;BME280;69633;47.066;15.450;2023-06-26T02:54:38;97640.06;;;18.31;67.66
80321;BME280;69633;47.066;15.450;2023-06-26T02:57:05;97643.91;;;18.34;67.70
80321;BME280;69633;47.066;15.450;2023-06-26T02:59:32;97650.44;;;18.33;67.71
80321;BME280;69633;47.066;15.450;2023-06-26T03:01:59;97647.34;;;18.31;67.78
80321;BME280;69633;47.066;15.450;2023-06-26T03:04:28;97643.50;;;18.28;67.78
80321;BME280;69633;47.066;15.450;2023-06-26T03:06:55;97639.63;;;18.26;67.85
80321;BME280;69633;47.066;15.450;2023-06-26T03:09:20;97637.34;;;18.28;67.72
80321;BME280;69633;47.066;15.450;2023-06-26T03:11:46;97647.72;;;18.29;67.72
80321;BME280;69633;47.066;15.450;2023-06-26T03:14:13;97642.75;;;18.31;67.51
80321;BME280;69633;47.066;15.450;2023-06-26T03:16:40;97649.22;;;18.27;67.62
80321;BME280;69633;47.066;15.450;2023-06-26T03:19:06;97643.50;;;18.32;67.52
80321;BME280;69633;47.066;15.450;2023-06-26T03:21:33;97648.13;;;18.35;67.43
80321;BME280;69633;47.066;15.450;2023-06-26T03:24:00;97645.88;;;18.41;67.51
80321;BME280;69633;47.066;15.450;2023-06-26T03:26:27;97649.69;;;18.40;67.02
80321;BME280;69633;47.066;15.450;2023-06-26T03:28:54;97652.38;;;18.36;67.01
80321;BME280;69633;47.066;15.450;2023-06-26T03:31:21;97657.75;;;18.36;67.07
80321;BME280;69633;47.066;15.450;2023-06-26T03:33:48;97660.81;;;18.38;67.00
80321;BME280;69633;47.066;15.450;2023-06-26T03:36:13;97657.00;;;18.39;67.17
80321;BME280;69633;47.066;15.450;2023-06-26T03:38:40;97655.84;;;18.40;67.09
80321;BME280;69633;47.066;15.450;2023-06-26T03:41:07;97661.22;;;18.40;67.15
80321;BME280;69633;47.066;15.450;2023-06-26T03:43:33;97650.50;;;18.44;66.83
80321;BME280;69633;47.066;15.450;2023-06-26T03:45:58;97658.16;;;18.45;67.02
80321;BME280;69633;47.066;15.450;2023-06-26T03:48:30;97653.19;;;18.47;66.85
80321;BME280;69633;47.066;15.450;2023-06-26T03:50:59;97649.31;;;18.45;66.79
80321;BME280;69633;47.066;15.450;2023-06-26T03:53:27;97648.97;;;18.46;66.54
80321;BME280;69633;47.066;15.450;2023-06-26T03:55:55;97650.50;;;18.47;66.53
80321;BME280;69633;47.066;15.450;2023-06-26T03:58:22;97642.81;;;18.49;66.89
80321;BME280;69633;47.066;15.450;2023-06-26T04:00:48;97642.09;;;18.52;66.51
80321;BME280;69633;47.066;15.450;2023-06-26T04:03:15;97647.47;;;18.52;66.55
80321;BME280;69633;47.066;15.450;2023-06-26T04:05:43;97649.00;;;18.53;66.56
80321;BME280;69633;47.066;15.450;2023-06-26T04:08:17;97649.41;;;18.52;66.33
80321;BME280;69633;47.066;15.450;2023-06-26T04:10:46;97658.94;;;18.49;66.42
80321;BME280;69633;47.066;15.450;2023-06-26T04:13:14;97655.94;;;18.54;66.29
80321;BME280;69633;47.066;15.450;2023-06-26T04:15:41;97648.28;;;18.60;66.17
80321;BME280;69633;47.066;15.450;2023-06-26T04:18:07;97656.75;;;18.62;65.86
80321;BME280;69633;47.066;15.450;2023-06-26T04:20:39;97656.38;;;18.67;65.82
80321;BME280;69633;47.066;15.450;2023-06-26T04:23:09;97654.44;;;18.64;65.79
80321;BME280;69633;47.066;15.450;2023-06-26T04:25:35;97654.84;;;18.66;65.82
80321;BME280;69633;47.066;15.450;2023-06-26T04:28:03;97660.59;;;18.64;65.83
80321;BME280;69633;47.066;15.450;2023-06-26T04:30:29;97661.34;;;18.65;65.89
80321;BME280;69633;47.066;15.450;2023-06-26T04:32:56;97654.44;;;18.67;65.60
80321;BME280;69633;47.066;15.450;2023-06-26T04:37:50;97660.28;;;18.80;65.00
80321;BME280;69633;47.066;15.450;2023-06-26T04:40:17;97658.75;;;18.90;64.67
80321;BME280;69633;47.066;15.450;2023-06-26T04:42:43;97659.53;;;18.94;64.65
80321;BME280;69633;47.066;15.450;2023-06-26T04:45:11;97660.31;;;18.98;64.41
80321;BME280;69633;47.066;15.450;2023-06-26T04:47:38;97661.09;;;19.02;64.34
80321;BME280;69633;47.066;15.450;2023-06-26T04:50:06;97661.13;;;19.09;64.23
80321;BME280;69633;47.066;15.450;2023-06-26T04:52:33;97662.66;;;19.10;64.39
80321;BME280;69633;47.066;15.450;2023-06-26T04:55:00;97669.19;;;19.16;64.55
80321;BME280;69633;47.066;15.450;2023-06-26T04:57:25;97666.91;;;19.21;63.75
80321;BME280;69633;47.066;15.450;2023-06-26T04:59:52;97663.47;;;19.28;63.47
80321;BME280;69633;47.066;15.450;2023-06-26T05:02:18;97663.47;;;19.35;63.71
80321;BME280;69633;47.066;15.450;2023-06-26T05:04:47;97661.97;;;19.41;63.41
80321;BME280;69633;47.066;15.450;2023-06-26T05:07:15;97660.81;;;19.42;63.52
80321;BME280;69633;47.066;15.450;2023-06-26T05:09:41;97658.53;;;19.51;63.38
80321;BME280;69633;47.066;15.450;2023-06-26T05:12:09;97667.00;;;19.60;62.84
80321;BME280;69633;47.066;15.450;2023-06-26T05:14:36;97664.69;;;19.62;62.97
80321;BME280;69633;47.066;15.450;2023-06-26T05:17:04;97667.78;;;19.64;62.57
80321;BME280;69633;47.066;15.450;2023-06-26T05:19:29;97653.13;;;19.76;62.60
80321;BME280;69633;47.066;15.450;2023-06-26T05:21:56;97652.75;;;19.77;62.39
80321;BME280;69633;47.066;15.450;2023-06-26T05:24:23;97652.38;;;19.90;62.00
80321;BME280;69633;47.066;15.450;2023-06-26T05:26:51;97652.75;;;19.92;61.97
80321;BME280;69633;47.066;15.450;2023-06-26T05:29:17;97653.16;;;19.90;62.04
80321;BME280;69633;47.066;15.450;2023-06-26T05:31:44;97653.91;;;19.98;61.96
80321;BME280;69633;47.066;15.450;2023-06-26T05:34:14;97654.66;;;20.16;61.35
80321;BME280;69633;47.066;15.450;2023-06-26T05:36:42;97654.28;;;20.28;60.88
80321;BME280;69633;47.066;15.450;2023-06-26T05:39:10;97646.16;;;20.42;60.42
80321;BME280;69633;47.066;15.450;2023-06-26T05:41:35;97653.06;;;20.50;60.29
80321;BME280;69633;47.066;15.450;2023-06-26T05:44:02;97662.28;;;20.56;60.20
80321;BME280;69633;47.066;15.450;2023-06-26T05:46:29;97663.00;;;20.67;59.58
80321;BME280;69633;47.066;15.450;2023-06-26T05:48:55;97657.19;;;20.76;59.64
80321;BME280;69633;47.066;15.450;2023-06-26T05:51:21;97655.19;;;20.91;59.71
80321;BME280;69633;47.066;15.450;2023-06-26T05:53:50;97657.47;;;21.03;59.14
80321;BME280;69633;47.066;15.450;2023-06-26T05:56:17;97652.00;;;21.17;58.79
80321;BME280;69633;47.066;15.450;2023-06-26T05:58:46;97661.19;;;21.27;58.65
80321;BME280;69633;47.066;15.450;2023-06-26T06:01:14;97658.69;;;21.53;57.88
80321;BME280;69633;47.066;15.450;2023-06-26T06:03:41;97660.19;;;21.61;57.67
80321;BME280;69633;47.066;15.450;2023-06-26T06:06:09;97663.22;;;21.67;57.43
80321;BME280;69633;47.066;15.450;2023-06-26T06:08:35;97665.41;;;21.83;57.14
80321;BME280;69633;47.066;15.450;2023-06-26T06:11:02;97651.47;;;21.91;57.06
80321;BME280;69633;47.066;15.450;2023-06-26T06:13:27;97654.53;;;21.90;56.60
80321;BME280;69633;47.066;15.450;2023-06-26T06:15:54;97651.22;;;22.16;56.45
80321;BME280;69633;47.066;15.450;2023-06-26T06:18:23;97652.91;;;22.40;55.79
80321;BME280;69633;47.066;15.450;2023-06-26T06:20:50;97654.94;;;22.33;56.35
80321;BME280;69633;47.066;15.450;2023-06-26T06:23:15;97659.22;;;22.30;56.18
80321;BME280;69633;47.066;15.450;2023-06-26T06:25:42;97649.22;;;22.57;55.74
80321;BME280;69633;47.066;15.450;2023-06-26T06:28:08;97658.69;;;22.76;54.74
80321;BME280;69633;47.066;15.450;2023-06-26T06:30:36;97649.91;;;22.69;54.92
80321;BME280;69633;47.066;15.450;2023-06-26T06:33:03;97649.81;;;23.06;54.74
80321;BME280;69633;47.066;15.450;2023-06-26T06:35:29;97640.94;;;23.05;54.16
80321;BME280;69633;47.066;15.450;2023-06-26T06:38:07;97647.91;;;23.03;53.80
80321;BME280;69633;47.066;15.450;2023-06-26T06:40:34;97638.06;;;23.16;53.54
80321;BME280;69633;47.066;15.450;2023-06-26T06:43:00;97642.88;;;23.58;52.64
80321;BME280;69633;47.066;15.450;2023-06-26T06:45:26;97646.75;;;23.81;51.83
80321;BME280;69633;47.066;15.450;2023-06-26T06:47:52;97643.13;;;24.14;51.61
80321;BME280;69633;47.066;15.450;2023-06-26T06:50:19;97645.66;;;24.44;50.34
80321;BME280;69633;47.066;15.450;2023-06-26T06:52:45;97646.97;;;24.76;49.89
80321;BME280;69633;47.066;15.450;2023-06-26T06:55:12;97638.38;;;24.97;49.63
80321;BME280;69633;47.066;15.450;2023-06-26T06:57:42;97646.34;;;25.08;49.22
80321;BME280;69633;47.066;15.450;2023-06-26T07:00:11;97640.13;;;25.23;48.27
80321;BME280;69633;47.066;15.450;2023-06-26T07:02:43;97639.56;;;25.32;48.03
80321;BME280;69633;47.066;15.450;2023-06-26T07:05:10;97646.78;;;25.38;48.13
80321;BME280;69633;47.066;15.450;2023-06-26T07:07:38;97632.09;;;25.36;48.12
80321;BME280;69633;47.066;15.450;2023-06-26T07:10:10;97637.28;;;25.46;47.94
80321;BME280;69633;47.066;15.450;2023-06-26T07:12:36;97637.81;;;25.58;47.61
80321;BME280;69633;47.066;15.450;2023-06-26T07:15:04;97637.03;;;25.89;47.24
80321;BME280;69633;47.066;15.450;2023-06-26T07:17:35;97636.78;;;26.00;46.70
80321;BME280;69633;47.066;15.450;2023-06-26T07:20:04;97638.31;;;26.01;46.84
80321;BME280;69633;47.066;15.450;2023-06-26T07:22:34;97631.56;;;26.22;46.11
80321;BME280;69633;47.066;15.450;2023-06-26T07:25:02;97634.66;;;26.36;46.06
80321;BME280;69633;47.066;15.450;2023-06-26T07:27:30;97632.66;;;26.66;45.42
80321;BME280;69633;47.066;15.450;2023-06-26T07:29:56;97632.75;;;26.91;44.42
80321;BME280;69633;47.066;15.450;2023-06-26T07:32:21;97629.06;;;27.10;44.29
80321;BME280;69633;47.066;15.450;2023-06-26T07:34:48;97633.44;;;27.20;43.81
80321;BME280;69633;47.066;15.450;2023-06-26T07:37:14;97630.81;;;27.04;43.10
80321;BME280;69633;47.066;15.450;2023-06-26T07:39:41;97634.94;;;26.96;43.74
80321;BME280;69633;47.066;15.450;2023-06-26T07:42:09;97630.16;;;27.25;43.54
80321;BME280;69633;47.066;15.450;2023-06-26T07:44:35;97627.66;;;27.31;42.04
80321;BME280;69633;47.066;15.450;2023-06-26T07:47:03;97617.84;;;27.21;42.83
80321;BME280;69633;47.066;15.450;2023-06-26T07:49:30;97627.31;;;27.16;43.15
80321;BME280;69633;47.066;15.450;2023-06-26T07:51:59;97626.66;;;27.37;42.63
80321;BME280;69633;47.066;15.450;2023-06-26T07:54:27;97636.81;;;27.50;42.84
80321;BME280;69633;47.066;15.450;2023-06-26T07:57:12;97625.69;;;27.44;42.04
80321;BME280;69633;47.066;15.450;2023-06-26T07:59:39;97625.56;;;27.73;41.40
80321;BME280;69633;47.066;15.450;2023-06-26T08:02:05;97623.41;;;27.90;40.03
80321;BME280;69633;47.066;15.450;2023-06-26T08:04:33;97628.66;;;27.97;41.08
80321;BME280;69633;47.066;15.450;2023-06-26T08:07:00;97623.00;;;28.25;41.10
80321;BME280;69633;47.066;15.450;2023-06-26T08:09:28;97625.31;;;28.49;40.12
80321;BME280;69633;47.066;15.450;2023-06-26T08:11:55;97619.84;;;28.49;39.57
80321;BME280;69633;47.066;15.450;2023-06-26T08:14:22;97619.97;;;28.45;39.40
80321;BME280;69633;47.066;15.450;2023-06-26T08:16:53;97617.56;;;28.69;38.96
80321;BME280;69633;47.066;15.450;2023-06-26T08:19:20;97616.50;;;28.97;39.25
80321;BME280;69633;47.066;15.450;2023-06-26T08:21:47;97619.97;;;29.28;38.44
80321;BME280;69633;47.066;15.450;2023-06-26T08:24:14;97619.94;;;29.19;39.27
80321;BME280;69633;47.066;15.450;2023-06-26T08:26:49;97626.53;;;29.00;40.44
80321;BME280;69633;47.066;15.450;2023-06-26T08:29:15;97622.31;;;28.34;41.12
80321;BME280;69633;47.066;15.450;2023-06-26T08:31:42;97608.03;;;28.73;40.39
80321;BME280;69633;47.066;15.450;2023-06-26T08:34:10;97608.66;;;29.17;39.48
80321;BME280;69633;47.066;15.450;2023-06-26T08:36:36;97614.38;;;28.49;40.89
80321;BME280;69633;47.066;15.450;2023-06-26T08:39:03;97612.91;;;28.57;40.71
80321;BME280;69633;47.066;15.450;2023-06-26T08:41:31;97611.19;;;28.28;41.70
80321;BME280;69633;47.066;15.450;2023-06-26T08:43:58;97613.88;;;28.41;41.23
80321;BME280;69633;47.066;15.450;2023-06-26T08:46:24;97612.22;;;28.44;40.56
80321;BME280;69633;47.066;15.450;2023-06-26T08:48:55;97608.03;;;28.73;39.74
80321;BME280;69633;47.066;15.450;2023-06-26T08:51:27;97607.53;;;28.97;39.81
80321;BME280;69633;47.066;15.450;2023-06-26T08:54:14;97603.31;;;29.05;39.03
80321;BME280;69633;47.066;15.450;2023-06-26T08:56:47;97597.91;;;28.83;39.62
80321;BME280;69633;47.066;15.450;2023-06-26T08:59:16;97600.25;;;28.72;39.66
80321;BME280;69633;47.066;15.450;2023-06-26T09:01:43;97599.97;;;29.01;39.71
80321;BME280;69633;47.066;15.450;2023-06-26T09:04:11;97598.03;;;28.58;39.86
80321;BME280;69633;47.066;15.450;2023-06-26T09:06:37;97592.47;;;28.05;40.83
80321;BME280;69633;47.066;15.450;2023-06-26T09:09:08;97592.94;;;27.57;41.92
80321;BME280;69633;47.066;15.450;2023-06-26T09:11:34;97587.41;;;27.48;42.20
80321;BME280;69633;47.066;15.450;2023-06-26T09:14:01;97588.34;;;28.01;41.82
80321;BME280;69633;47.066;15.450;2023-06-26T09:16:31;97583.00;;;28.10;40.82
80321;BME280;69633;47.066;15.450;2023-06-26T09:18:58;97577.38;;;28.78;39.64
80321;BME280;69633;47.066;15.450;2023-06-26T09:21:25;97584.25;;;29.23;39.02
80321;BME280;69633;47.066;15.450;2023-06-26T09:23:52;97578.91;;;29.19;37.49
80321;BME280;69633;47.066;15.450;2023-06-26T09:26:21;97571.91;;;29.18;37.76
80321;BME280;69633;47.066;15.450;2023-06-26T09:28:53;97571.84;;;29.40;37.09
80321;BME280;69633;47.066;15.450;2023-06-26T09:31:20;97566.31;;;29.22;39.56
80321;BME280;69633;47.066;15.450;2023-06-26T09:33:46;97562.06;;;28.81;37.75
80321;BME280;69633;47.066;15.450;2023-06-26T09:36:21;97565.31;;;28.67;38.73
80321;BME280;69633;47.066;15.450;2023-06-26T09:38:52;97558.47;;;29.02;37.26
80321;BME280;69633;47.066;15.450;2023-06-26T09:41:20;97553.16;;;29.39;37.76
80321;BME280;69633;47.066;15.450;2023-06-26T09:43:50;97555.59;;;29.55;37.31
80321;BME280;69633;47.066;15.450;2023-06-26T09:46:28;97556.69;;;29.08;36.59
80321;BME280;69633;47.066;15.450;2023-06-26T09:49:01;97540.97;;;28.82;35.46
80321;BME280;69633;47.066;15.450;2023-06-26T09:51:34;97542.03;;;28.84;36.19
80321;BME280;69633;47.066;15.450;2023-06-26T09:54:01;97552.13;;;29.05;38.49
80321;BME280;69633;47.066;15.450;2023-06-26T09:56:30;97549.00;;;28.85;36.42
80321;BME280;69633;47.066;15.450;2023-06-26T09:59:01;97551.03;;;28.94;36.17
80321;BME280;69633;47.066;15.450;2023-06-26T10:01:29;97543.13;;;29.36;33.98
80321;BME280;69633;47.066;15.450;2023-06-26T10:03:56;97544.66;;;29.55;33.95
80321;BME280;69633;47.066;15.450;2023-06-26T10:06:48;97536.63;;;29.60;34.24
80321;BME280;69633;47.066;15.450;2023-06-26T10:09:17;97543.78;;;29.58;38.22
80321;BME280;69633;47.066;15.450;2023-06-26T10:12:03;97536.63;;;29.60;38.34
80321;BME280;69633;47.066;15.450;2023-06-26T10:14:36;97528.59;;;29.93;38.29
80321;BME280;69633;47.066;15.450;2023-06-26T10:17:09;97524.19;;;29.87;38.34
80321;BME280;69633;47.066;15.450;2023-06-26T10:19:38;97533.16;;;30.05;38.15
80321;BME280;69633;47.066;15.450;2023-06-26T10:22:11;97534.53;;;30.10;37.84
80321;BME280;69633;47.066;15.450;2023-06-26T10:24:42;97537.41;;;29.97;37.92
80321;BME280;69633;47.066;15.450;2023-06-26T10:27:17;97534.34;;;29.77;38.41
80321;BME280;69633;47.066;15.450;2023-06-26T10:29:47;97531.63;;;29.86;38.45
80321;BME280;69633;47.066;15.450;2023-06-26T10:32:17;97534.66;;;30.15;38.40
80321;BME280;69633;47.066;15.450;2023-06-26T10:34:46;97524.00;;;30.17;38.39
80321;BME280;69633;47.066;15.450;2023-06-26T10:37:13;97526.47;;;30.06;38.48
80321;BME280;69633;47.066;15.450;2023-06-26T10:39:59;97525.06;;;30.11;38.44
80321;BME280;69633;47.066;15.450;2023-06-26T10:42:37;97519.91;;;30.13;38.76
80321;BME280;69633;47.066;15.450;2023-06-26T10:47:41;97510.25;;;30.45;36.57
80321;BME280;69633;47.066;15.450;2023-06-26T10:50:38;97508.09;;;31.00;36.31
80321;BME280;69633;47.066;15.450;2023-06-26T10:53:24;97509.91;;;30.94;36.15
80321;BME280;69633;47.066;15.450;2023-06-26T10:56:05;97511.19;;;30.33;36.67
80321;BME280;69633;47.066;15.450;2023-06-26T10:58:50;97512.59;;;30.01;37.15
80321;BME280;69633;47.066;15.450;2023-06-26T11:01:24;97500.25;;;30.23;36.78
80321;BME280;69633;47.066;15.450;2023-06-26T11:04:09;97504.16;;;30.41;36.91
80321;BME280;69633;47.066;15.450;2023-06-26T11:06:38;97501.03;;;31.08;35.49
80321;BME280;69633;47.066;15.450;2023-06-26T11:09:11;97502.19;;;31.16;35.45
80321;BME280;69633;47.066;15.450;2023-06-26T11:11:56;97511.50;;;31.19;35.42
80321;BME280;69633;47.066;15.450;2023-06-26T11:14:31;97516.91;;;31.28;35.88
80321;BME280;69633;47.066;15.450;2023-06-26T11:16:59;97504.84;;;31.10;36.28
80321;BME280;69633;47.066;15.450;2023-06-26T11:19:28;97511.06;;;30.78;36.84
80321;BME280;69633;47.066;15.450;2023-06-26T11:22:01;97507.50;;;30.54;37.21
80321;BME280;69633;47.066;15.450;2023-06-26T11:24:29;97510.72;;;30.85;36.82
80321;BME280;69633;47.066;15.450;2023-06-26T11:27:00;97504.47;;;31.17;36.58
80321;BME280;69633;47.066;15.450;2023-06-26T11:29:26;97503.91;;;31.13;35.98
80321;BME280;69633;47.066;15.450;2023-06-26T11:31:58;97496.13;;;30.79;36.58
80321;BME280;69633;47.066;15.450;2023-06-26T11:34:29;97501.09;;;31.23;36.30
80321;BME280;69633;47.066;15.450;2023-06-26T11:36:57;97502.56;;;31.33;35.42
80321;BME280;69633;47.066;15.450;2023-06-26T11:39:22;97509.44;;;30.95;36.63
80321;BME280;69633;47.066;15.450;2023-06-26T11:41:49;97509.69;;;31.63;35.94
80321;BME280;69633;47.066;15.450;2023-06-26T11:44:16;97513.25;;;31.93;35.82
80321;BME280;69633;47.066;15.450;2023-06-26T11:46:47;97506.41;;;31.88;35.28
80321;BME280;69633;47.066;15.450;2023-06-26T11:49:17;97498.66;;;31.87;35.20
80321;BME280;69633;47.066;15.450;2023-06-26T11:51:45;97500.38;;;31.99;35.04
80321;BME280;69633;47.066;15.450;2023-06-26T11:54:16;97505.28;;;31.95;35.56
80321;BME280;69633;47.066;15.450;2023-06-26T11:56:56;97498.06;;;31.68;35.62
80321;BME280;69633;47.066;15.450;2023-06-26T11:59:24;97493.03;;;31.67;35.92
80321;BME280;69633;47.066;15.450;2023-06-26T12:01:56;97497.19;;;32.30;34.84
80321;BME280;69633;47.066;15.450;2023-06-26T12:04:23;97497.38;;;32.26;34.61
80321;BME280;69633;47.066;15.450;2023-06-26T12:06:52;97499.19;;;31.76;35.75
80321;BME280;69633;47.066;15.450;2023-06-26T12:09:23;97491.50;;;32.19;35.06
80321;BME280;69633;47.066;15.450;2023-06-26T12:11:55;97487.03;;;32.65;34.46
80321;BME280;69633;47.066;15.450;2023-06-26T12:14:35;97498.72;;;32.60;33.97
80321;BME280;69633;47.066;15.450;2023-06-26T12:17:05;97497.59;;;32.87;34.37
80321;BME280;69633;47.066;15.450;2023-06-26T12:19:33;97497.00;;;33.32;32.73
80321;BME280;69633;47.066;15.450;2023-06-26T12:22:06;97482.94;;;33.30;32.58
80321;BME280;69633;47.066;15.450;2023-06-26T12:24:36;97494.72;;;33.71;32.87
80321;BME280;69633;47.066;15.450;2023-06-26T12:27:12;97493.50;;;33.32;33.71
80321;BME280;69633;47.066;15.450;2023-06-26T12:29:45;97482.53;;;33.37;33.79
80321;BME280;69633;47.066;15.450;2023-06-26T12:32:17;97478.34;;;33.42;33.81
80321;BME280;69633;47.066;15.450;2023-06-26T12:34:49;97476.69;;;33.30;33.00
80321;BME280;69633;47.066;15.450;2023-06-26T12:37:17;97473.22;;;32.94;33.56
80321;BME280;69633;47.066;15.450;2023-06-26T12:40:04;97470.22;;;33.13;33.05
80321;BME280;69633;47.066;15.450;2023-06-26T12:42:33;97474.63;;;33.45;32.78
80321;BME280;69633;47.066;15.450;2023-06-26T12:45:11;97474.69;;;33.50;32.86
80321;BME280;69633;47.066;15.450;2023-06-26T12:47:37;97472.91;;;33.93;32.39
80321;BME280;69633;47.066;15.450;2023-06-26T12:50:08;97475.94;;;33.95;31.80
80321;BME280;69633;47.066;15.450;2023-06-26T12:52:34;97472.84;;;33.22;32.29
80321;BME280;69633;47.066;15.450;2023-06-26T12:55:00;97464.88;;;32.39;33.25
80321;BME280;69633;47.066;15.450;2023-06-26T12:57:28;97466.69;;;32.28;33.66
80321;BME280;69633;47.066;15.450;2023-06-26T12:59:54;97458.75;;;32.99;33.51
80321;BME280;69633;47.066;15.450;2023-06-26T13:02:21;97464.22;;;34.26;31.66
80321;BME280;69633;47.066;15.450;2023-06-26T13:04:48;97459.28;;;34.67;30.63
80321;BME280;69633;47.066;15.450;2023-06-26T13:07:15;97455.63;;;35.29;30.62
80321;BME280;69633;47.066;15.450;2023-06-26T13:09:41;97456.41;;;35.35;30.52